Time;durP1;ratioP1;P1;durP2;ratioP2;P2;SDS_P1;SDS_P2;PMS_P1;PMS_P2;Temp;Humidity;BMP_temperature;BMP_pressure;BME280_temperature;BME280_humidity;BME280_pressure;Samples;Min_cycle;Max_cycle;Signal;HPM_P1;HPM_P2
2023/04/05 00:00:09;;;;;;;7.90;5.60;;;;;;;;;;5021534;28;20032;-50
2023/04/05 00:02:39;;;;;;;9.50;5.70;;;;;;;;;;5022483;28;20473;-56
2023/04/05 00:05:05;;;;;;;10.43;6.28;;;;;;;;;;5025206;28;20030;-57
2023/04/05 00:07:33;;;;;;;10.57;6.40;;;;;;;;;;5021648;28;20039;-55
2023/04/05 00:09:58;;;;;;;9.52;5.95;;;;;;;;;;5023224;28;20099;-57
2023/04/05 00:12:23;;;;;;;8.00;5.90;;;;;;;;;;5022076;28;20029;-54
2023/04/05 00:14:49;;;;;;;13.35;6.20;;;;;;;;;;5006666;28;20131;-57
2023/04/05 00:17:14;;;;;;;11.05;5.80;;;;;;;;;;5023335;28;20025;-57
2023/04/05 00:19:42;;;;;;;9.50;6.07;;;;;;;;;;5024033;28;20122;-58
2023/04/05 00:22:09;;;;;;;8.45;5.88;;;;;;;;;;5004516;28;20445;-57
2023/04/05 00:24:40;;;;;;;10.30;6.32;;;;;;;;;;5026147;28;20040;-53
2023/04/05 00:27:06;;;;;;;10.63;6.38;;;;;;;;;;5023324;28;20043;-52
2023/04/05 00:29:31;;;;;;;8.15;5.70;;;;;;;;;;5006120;28;20045;-51
2023/04/05 00:31:56;;;;;;;11.18;6.07;;;;;;;;;;5004601;28;20048;-53
2023/04/05 00:34:22;;;;;;;14.30;6.18;;;;;;;;;;5021134;28;20065;-52
2023/04/05 00:36:47;;;;;;;8.77;5.57;;;;;;;;;;5004459;28;20734;-55
2023/04/05 00:39:13;;;;;;;8.20;5.47;;;;;;;;;;5021474;28;20466;-53
2023/04/05 00:41:39;;;;;;;10.68;5.75;;;;;;;;;;5003351;28;20030;-55
2023/04/05 00:44:05;;;;;;;7.97;5.40;;;;;;;;;;4988083;28;20040;-53
2023/04/05 00:46:32;;;;;;;9.53;5.23;;;;;;;;;;5029953;28;20029;-53
2023/04/05 00:48:58;;;;;;;10.10;5.97;;;;;;;;;;5007435;28;20618;-51
2023/04/05 00:51:23;;;;;;;9.48;5.80;;;;;;;;;;5008897;28;20048;-52
2023/04/05 00:53:51;;;;;;;7.38;5.28;;;;;;;;;;5004817;28;20033;-53
2023/04/05 00:56:17;;;;;;;7.95;5.70;;;;;;;;;;5025037;28;20044;-53
2023/04/05 00:58:42;;;;;;;8.40;5.50;;;;;;;;;;5006134;28;20702;-54
2023/04/05 01:01:12;;;;;;;9.43;5.40;;;;;;;;;;5021212;28;20429;-56
2023/04/05 01:03:40;;;;;;;10.05;5.60;;;;;;;;;;5004746;28;20074;-55
2023/04/05 01:06:24;;;;;;;7.68;5.28;;;;;;;;;;5028277;28;20036;-55
2023/04/05 01:08:54;;;;;;;9.48;4.63;;;;;;;;;;5011347;28;20061;-56
2023/04/05 01:11:21;;;;;;;9.20;5.22;;;;;;;;;;5010024;28;20037;-53
2023/04/05 01:13:46;;;;;;;9.82;5.18;;;;;;;;;;5026853;28;20057;-52
2023/04/05 01:16:12;;;;;;;8.07;5.05;;;;;;;;;;5003199;28;20141;-50
2023/04/05 01:18:37;;;;;;;8.95;5.18;;;;;;;;;;5009658;28;20037;-51
2023/04/05 01:21:22;;;;;;;8.25;5.03;;;;;;;;;;5023882;28;20091;-57
2023/04/05 01:23:50;;;;;;;8.32;5.22;;;;;;;;;;5006945;28;20133;-54
2023/04/05 01:26:27;;;;;;;7.57;5.05;;;;;;;;;;5007303;28;20025;-55
2023/04/05 01:28:56;;;;;;;7.68;4.78;;;;;;;;;;5010704;28;20032;-56
2023/04/05 01:31:45;;;;;;;7.45;4.93;;;;;;;;;;5008412;28;20033;-54
2023/04/05 01:34:16;;;;;;;8.35;5.05;;;;;;;;;;5024212;28;20029;-55
2023/04/05 01:36:44;;;;;;;8.95;4.95;;;;;;;;;;5023451;28;20544;-49
2023/04/05 01:39:11;;;;;;;8.45;5.22;;;;;;;;;;5011838;28;20039;-53
2023/04/05 01:41:36;;;;;;;;;;;;;;;;;;5025404;28;20030;-53
2023/04/05 01:44:02;;;;;;;8.83;5.30;;;;;;;;;;4996009;28;19958;-59
2023/04/05 01:46:27;;;;;;;11.68;5.40;;;;;;;;;;5008905;28;20082;-52
2023/04/05 01:48:52;;;;;;;7.82;5.32;;;;;;;;;;5008115;28;20734;-51
2023/04/05 01:51:19;;;;;;;8.55;5.05;;;;;;;;;;5008974;28;20030;-53
2023/04/05 01:53:44;;;;;;;11.13;5.63;;;;;;;;;;5009602;28;20053;-53
2023/04/05 01:56:09;;;;;;;8.38;5.30;;;;;;;;;;5023170;28;20037;-54
2023/04/05 01:58:35;;;;;;;7.80;5.18;;;;;;;;;;5023600;28;20034;-51
2023/04/05 02:01:01;;;;;;;10.00;5.28;;;;;;;;;;5006898;28;20461;-55
2023/04/05 02:03:26;;;;;;;10.75;6.15;;;;;;;;;;5022426;28;20046;-51
2023/04/05 02:05:51;;;;;;;9.30;5.60;;;;;;;;;;5007810;28;20076;-52
2023/04/05 02:08:17;;;;;;;8.02;5.15;;;;;;;;;;5004515;28;20472;-54
2023/04/05 02:10:42;;;;;;;10.63;5.93;;;;;;;;;;5003099;28;20046;-53
2023/04/05 02:13:08;;;;;;;7.65;5.15;;;;;;;;;;4992402;28;20069;-53
2023/04/05 02:15:33;;;;;;;12.50;5.55;;;;;;;;;;5025499;28;20033;-51
2023/04/05 02:18:00;;;;;;;9.60;5.72;;;;;;;;;;5023149;28;20053;-53
2023/04/05 02:20:26;;;;;;;11.23;6.40;;;;;;;;;;5027070;28;20686;-55
2023/04/05 02:22:53;;;;;;;14.63;6.97;;;;;;;;;;5004994;28;20037;-56
2023/04/05 02:25:18;;;;;;;17.85;8.30;;;;;;;;;;5005834;28;20291;-52
2023/04/05 02:27:43;;;;;;;19.75;8.43;;;;;;;;;;5025659;28;20533;-57
2023/04/05 02:30:11;;;;;;;16.23;8.65;;;;;;;;;;5024600;28;20042;-53
2023/04/05 02:32:36;;;;;;;16.85;8.13;;;;;;;;;;5021466;28;20026;-55
2023/04/05 02:35:02;;;;;;;16.63;7.55;;;;;;;;;;5006039;28;20033;-55
2023/04/05 02:37:27;;;;;;;13.10;6.70;;;;;;;;;;5022145;28;20034;-54
2023/04/05 02:39:53;;;;;;;11.77;6.63;;;;;;;;;;5002899;28;20036;-53
2023/04/05 02:42:18;;;;;;;12.13;6.00;;;;;;;;;;5024870;28;20062;-49
2023/04/05 02:44:43;;;;;;;11.25;6.30;;;;;;;;;;5025896;28;20037;-52
2023/04/05 02:47:20;;;;;;;11.00;6.40;;;;;;;;;;5008850;28;20041;-55
2023/04/05 02:49:48;;;;;;;9.20;5.53;;;;;;;;;;4999389;28;20512;-54
2023/04/05 02:52:14;;;;;;;11.20;5.82;;;;;;;;;;5004963;28;20037;-54
2023/04/05 02:54:43;;;;;;;9.10;5.75;;;;;;;;;;5010581;28;20033;-56
2023/04/05 02:57:10;;;;;;;10.65;5.45;;;;;;;;;;5009371;28;20029;-52
2023/04/05 02:59:44;;;;;;;10.77;5.88;;;;;;;;;;5008031;28;20138;-57
2023/04/05 03:02:09;;;;;;;10.07;5.78;;;;;;;;;;5006652;28;20033;-54
2023/04/05 03:04:35;;;;;;;8.95;5.65;;;;;;;;;;5007935;28;20041;-51
2023/04/05 03:07:02;;;;;;;8.05;5.63;;;;;;;;;;4999192;28;20094;-53
2023/04/05 03:09:33;;;;;;;9.38;5.00;;;;;;;;;;5020315;28;20463;-54
2023/04/05 03:12:03;;;;;;;9.43;5.47;;;;;;;;;;5006183;28;20033;-51
2023/04/05 03:14:30;;;;;;;;;;;;;;;;;;5006789;28;20095;-51
2023/04/05 03:16:56;;;;;;;13.00;5.37;;;;;;;;;;5004066;28;19917;-51
2023/04/05 03:19:32;;;;;;;11.02;5.97;;;;;;;;;;5000559;28;20283;-54
2023/04/05 03:22:07;;;;;;;9.63;5.65;;;;;;;;;;5002573;28;20022;-48
2023/04/05 03:24:35;;;;;;;;;;;;;;;;;;5006022;28;20113;-55
2023/04/05 03:27:03;;;;;;;7.20;5.05;;;;;;;;;;5004142;28;19920;-52
2023/04/05 03:29:32;;;;;;;9.15;5.85;;;;;;;;;;5023779;28;20049;-51
2023/04/05 03:32:10;;;;;;;7.40;5.18;;;;;;;;;;5004190;28;20029;-51
2023/04/05 03:34:37;;;;;;;14.48;6.10;;;;;;;;;;5024843;28;20366;-52
2023/04/05 03:37:06;;;;;;;11.90;5.65;;;;;;;;;;5005133;28;20022;-51
2023/04/05 03:39:47;;;;;;;10.90;6.13;;;;;;;;;;5006191;28;20048;-51
2023/04/05 03:42:14;;;;;;;;;;;;;;;;;;5004794;28;20033;-60
2023/04/05 03:44:40;;;;;;;;;;;;;;;;;;5004544;28;19917;-55
2023/04/05 03:47:06;;;;;;;7.00;4.87;;;;;;;;;;5004013;28;19913;-54
2023/04/05 03:49:31;;;;;;;9.05;5.20;;;;;;;;;;5024395;28;20301;-56
2023/04/05 03:51:56;;;;;;;10.00;5.82;;;;;;;;;;5002477;28;20033;-52
2023/04/05 03:54:22;;;;;;;8.52;5.50;;;;;;;;;;4988158;28;20025;-52
2023/04/05 03:56:52;;;;;;;9.65;5.72;;;;;;;;;;5006981;28;20040;-54
2023/04/05 03:59:17;;;;;;;10.13;5.50;;;;;;;;;;5022023;28;20033;-58
2023/04/05 04:01:43;;;;;;;11.02;6.43;;;;;;;;;;5002384;28;20086;-52
2023/04/05 04:04:09;;;;;;;9.98;6.03;;;;;;;;;;5008584;28;20029;-57
2023/04/05 04:06:36;;;;;;;10.23;5.57;;;;;;;;;;5005253;28;20036;-54
2023/04/05 04:09:01;;;;;;;8.10;5.18;;;;;;;;;;5004229;28;20392;-55
2023/04/05 04:11:28;;;;;;;;;;;;;;;;;;5005997;28;20124;-55
2023/04/05 04:13:54;;;;;;;11.18;5.95;;;;;;;;;;5008532;28;20345;-55
2023/04/05 04:16:47;;;;;;;13.35;6.28;;;;;;;;;;5023261;28;20025;-53
2023/04/05 04:19:31;;;;;;;10.85;6.50;;;;;;;;;;5005385;28;20061;-53
2023/04/05 04:22:04;;;;;;;10.00;5.78;;;;;;;;;;4997775;28;20025;-54
2023/04/05 04:25:01;;;;;;;10.32;5.78;;;;;;;;;;5004916;28;20401;-53
2023/04/05 04:27:55;;;;;;;8.65;5.78;;;;;;;;;;5006161;28;20051;-53
2023/04/05 04:30:42;;;;;;;9.75;5.32;;;;;;;;;;5007322;28;20416;-53
2023/04/05 04:33:16;;;;;;;15.75;6.43;;;;;;;;;;5002091;28;21838;-50
2023/04/05 04:36:13;;;;;;;9.15;5.60;;;;;;;;;;4998415;28;20069;-55
2023/04/05 04:38:52;;;;;;;11.98;6.65;;;;;;;;;;5025698;28;20041;-54
2023/04/05 04:41:34;;;;;;;11.45;6.53;;;;;;;;;;5005430;28;20029;-54
2023/04/05 04:44:27;;;;;;;11.90;6.38;;;;;;;;;;5027611;28;20118;-56
2023/04/05 04:47:02;;;;;;;10.57;5.95;;;;;;;;;;5026711;28;20044;-56
2023/04/05 04:49:56;;;;;;;10.07;6.70;;;;;;;;;;5020982;28;20069;-50
2023/04/05 04:52:21;;;;;;;;;;;;;;;;;;5027456;28;20695;-51
2023/04/05 04:54:46;;;;;;;12.70;6.03;;;;;;;;;;5027637;28;20464;-52
2023/04/05 04:57:11;;;;;;;9.30;5.78;;;;;;;;;;4993216;28;20274;-56
2023/04/05 04:59:37;;;;;;;11.57;7.00;;;;;;;;;;5024296;28;20030;-56
2023/04/05 05:02:04;;;;;;;12.52;7.38;;;;;;;;;;5008648;28;21193;-51
2023/04/05 05:04:30;;;;;;;12.07;7.28;;;;;;;;;;4989466;28;20583;-56
2023/04/05 05:06:55;;;;;;;13.63;8.52;;;;;;;;;;5019070;28;20037;-59
2023/04/05 05:09:21;;;;;;;14.18;8.15;;;;;;;;;;5020489;28;20037;-58
2023/04/05 05:11:50;;;;;;;14.38;7.93;;;;;;;;;;5002971;28;20574;-58
2023/04/05 05:14:16;;;;;;;12.02;8.07;;;;;;;;;;5024022;28;20029;-56
2023/04/05 05:16:41;;;;;;;15.52;6.93;;;;;;;;;;5026231;28;20017;-58
2023/04/05 05:19:06;;;;;;;17.20;9.30;;;;;;;;;;5007166;28;20025;-56
2023/04/05 05:21:43;;;;;;;14.63;8.25;;;;;;;;;;5004834;28;20056;-53
2023/04/05 05:24:08;;;;;;;16.05;8.02;;;;;;;;;;5004170;28;20029;-50
2023/04/05 05:26:34;;;;;;;11.02;7.15;;;;;;;;;;5004187;28;20029;-52
2023/04/05 05:29:00;;;;;;;14.00;7.40;;;;;;;;;;5024885;28;20029;-55
2023/04/05 05:31:28;;;;;;;13.02;7.85;;;;;;;;;;5005696;28;20038;-55
2023/04/05 05:33:53;;;;;;;13.35;8.18;;;;;;;;;;5004515;28;20029;-55
2023/04/05 05:36:18;;;;;;;14.07;8.63;;;;;;;;;;5017520;28;22115;-57
2023/04/05 05:38:44;;;;;;;18.00;12.20;;;;;;;;;;5023476;28;20387;-56
2023/04/05 05:41:09;;;;;;;26.17;18.95;;;;;;;;;;5023298;28;20025;-57
2023/04/05 05:43:34;;;;;;;24.35;16.20;;;;;;;;;;5021693;28;20041;-54
2023/04/05 05:46:00;;;;;;;23.50;13.15;;;;;;;;;;5023238;28;20064;-55
2023/04/05 05:48:26;;;;;;;19.80;11.38;;;;;;;;;;5024258;28;20029;-58
2023/04/05 05:50:51;;;;;;;17.20;10.73;;;;;;;;;;5025556;28;20045;-54
2023/04/05 05:53:16;;;;;;;18.58;10.82;;;;;;;;;;5024131;28;20104;-52
2023/04/05 05:55:42;;;;;;;18.05;10.00;;;;;;;;;;5022226;28;20033;-57
2023/04/05 05:58:07;;;;;;;16.48;9.75;;;;;;;;;;5024074;28;20029;-54
2023/04/05 06:00:32;;;;;;;15.82;9.18;;;;;;;;;;5023509;28;20030;-57
2023/04/05 06:02:57;;;;;;;14.38;9.40;;;;;;;;;;5003801;28;20032;-53
2023/04/05 06:05:24;;;;;;;17.48;10.57;;;;;;;;;;5007023;28;20025;-56
2023/04/05 06:07:49;;;;;;;19.42;10.85;;;;;;;;;;5017688;28;20041;-54
2023/04/05 06:10:15;;;;;;;18.00;11.30;;;;;;;;;;4992180;28;20038;-53
2023/04/05 06:12:40;;;;;;;17.13;10.82;;;;;;;;;;5025720;28;20295;-54
2023/04/05 06:15:06;;;;;;;17.95;10.50;;;;;;;;;;5026552;28;20108;-53
2023/04/05 06:17:33;;;;;;;22.88;10.65;;;;;;;;;;5027093;28;20041;-57
2023/04/05 06:19:58;;;;;;;15.10;9.32;;;;;;;;;;5025745;28;20036;-54
2023/04/05 06:22:23;;;;;;;16.85;9.32;;;;;;;;;;5026896;28;20377;-57
2023/04/05 06:24:49;;;;;;;19.95;10.27;;;;;;;;;;5008931;28;20029;-55
2023/04/05 06:27:14;;;;;;;15.80;9.43;;;;;;;;;;5026839;28;20033;-54
2023/04/05 06:29:40;;;;;;;16.20;9.05;;;;;;;;;;5028798;28;20076;-54
2023/04/05 06:32:05;;;;;;;17.08;9.30;;;;;;;;;;5026625;28;20030;-55
2023/04/05 06:34:30;;;;;;;15.95;9.10;;;;;;;;;;5008252;28;20041;-56
2023/04/05 06:36:56;;;;;;;18.98;9.25;;;;;;;;;;5029155;28;20826;-57
2023/04/05 06:39:21;;;;;;;17.38;9.50;;;;;;;;;;5025644;28;20029;-52
2023/04/05 06:41:46;;;;;;;14.00;10.00;;;;;;;;;;5008614;28;20038;-53
2023/04/05 06:44:12;;;;;;;12.68;7.97;;;;;;;;;;5025638;28;20029;-57
2023/04/05 06:46:37;;;;;;;17.95;9.60;;;;;;;;;;5026719;28;20401;-56
2023/04/05 06:49:03;;;;;;;17.17;8.73;;;;;;;;;;5023253;28;20030;-56
2023/04/05 06:51:28;;;;;;;17.42;8.73;;;;;;;;;;5007578;28;20034;-56
2023/04/05 06:53:54;;;;;;;14.30;9.02;;;;;;;;;;5026428;28;20032;-58
2023/04/05 06:56:20;;;;;;;13.25;8.52;;;;;;;;;;5025750;28;20021;-55
2023/04/05 06:58:46;;;;;;;14.10;8.73;;;;;;;;;;5025594;28;20466;-53
2023/04/05 07:01:11;;;;;;;17.77;9.02;;;;;;;;;;5005769;28;20064;-52
2023/04/05 07:03:36;;;;;;;17.27;8.90;;;;;;;;;;5022645;28;20037;-56
2023/04/05 07:06:03;;;;;;;14.13;8.35;;;;;;;;;;5024755;28;20041;-56
2023/04/05 07:08:30;;;;;;;13.77;8.38;;;;;;;;;;5026454;28;20644;-57
2023/04/05 07:10:55;;;;;;;13.45;8.57;;;;;;;;;;5007453;28;20493;-57
2023/04/05 07:13:21;;;;;;;14.45;8.70;;;;;;;;;;5025134;28;20037;-56
2023/04/05 07:15:47;;;;;;;14.15;8.07;;;;;;;;;;5023530;28;20112;-55
2023/04/05 07:18:14;;;;;;;16.10;8.95;;;;;;;;;;5021885;28;20705;-56
2023/04/05 07:20:40;;;;;;;16.67;8.48;;;;;;;;;;5022579;28;20037;-55
2023/04/05 07:23:06;;;;;;;15.10;9.02;;;;;;;;;;5021995;28;20262;-54
2023/04/05 07:25:31;;;;;;;13.48;8.68;;;;;;;;;;5022621;28;20394;-59
2023/04/05 07:27:56;;;;;;;29.50;12.07;;;;;;;;;;5022438;28;20029;-58
2023/04/05 07:30:22;;;;;;;18.95;9.85;;;;;;;;;;5024132;28;20070;-55
2023/04/05 07:32:47;;;;;;;18.10;9.85;;;;;;;;;;5004961;28;20040;-57
2023/04/05 07:35:13;;;;;;;13.55;8.40;;;;;;;;;;5024697;28;20087;-54
2023/04/05 07:37:38;;;;;;;17.20;9.38;;;;;;;;;;5022549;28;20122;-58
2023/04/05 07:40:04;;;;;;;28.60;11.70;;;;;;;;;;5025797;28;20064;-57
2023/04/05 07:42:30;;;;;;;15.52;8.27;;;;;;;;;;5022047;28;20033;-55
2023/04/05 07:44:56;;;;;;;13.52;7.90;;;;;;;;;;5023626;28;20032;-55
2023/04/05 07:47:21;;;;;;;15.77;7.97;;;;;;;;;;5022001;28;20364;-57
2023/04/05 07:49:46;;;;;;;12.45;8.32;;;;;;;;;;5020356;28;20396;-59
2023/04/05 07:52:12;;;;;;;10.80;7.70;;;;;;;;;;5004282;28;20037;-56
2023/04/05 07:54:40;;;;;;;12.75;7.80;;;;;;;;;;5020759;28;20025;-55
2023/04/05 07:57:06;;;;;;;12.25;7.78;;;;;;;;;;5019914;28;20477;-54
2023/04/05 07:59:34;;;;;;;13.05;7.30;;;;;;;;;;5093147;22;20045;-93
2023/04/05 08:02:02;;;;;;;15.63;7.85;;;;;;;;;;5006883;28;20051;-92
2023/04/05 08:05:00;;;;;;;;;;;;;;;;;;;;;
2023/04/05 08:07:48;;;;;;;9.23;6.45;;;;;;;;;;5037349;23;20050;-56
2023/04/05 08:10:13;;;;;;;12.30;6.82;;;;;;;;;;5001437;28;20453;-55
2023/04/05 08:12:39;;;;;;;11.93;6.95;;;;;;;;;;5004126;28;20432;-56
2023/04/05 08:15:04;;;;;;;11.88;7.03;;;;;;;;;;5009291;28;20441;-51
2023/04/05 08:17:30;;;;;;;10.95;6.68;;;;;;;;;;5009865;28;20038;-57
2023/04/05 08:19:55;;;;;;;10.82;6.53;;;;;;;;;;5008061;28;20793;-55
2023/04/05 08:22:20;;;;;;;12.23;6.38;;;;;;;;;;5010056;28;20076;-50
2023/04/05 08:24:46;;;;;;;11.13;6.55;;;;;;;;;;5008008;28;20359;-55
2023/04/05 08:27:11;;;;;;;13.98;6.95;;;;;;;;;;5008630;28;20237;-55
2023/04/05 08:29:37;;;;;;;10.68;6.40;;;;;;;;;;5008964;28;20271;-54
2023/04/05 08:32:03;;;;;;;10.95;6.00;;;;;;;;;;5008258;28;20025;-51
2023/04/05 08:34:28;;;;;;;8.40;6.03;;;;;;;;;;5007615;28;20148;-53
2023/04/05 08:36:56;;;;;;;11.93;6.18;;;;;;;;;;5008708;28;20029;-56
2023/04/05 08:39:22;;;;;;;10.10;6.18;;;;;;;;;;5008943;28;20583;-53
2023/04/05 08:41:53;;;;;;;9.27;5.55;;;;;;;;;;5009205;28;20025;-53
2023/04/05 08:44:21;;;;;;;9.65;6.07;;;;;;;;;;5006874;28;20389;-53
2023/04/05 08:46:47;;;;;;;9.65;5.78;;;;;;;;;;5008101;28;20048;-56
2023/04/05 08:49:12;;;;;;;12.05;6.03;;;;;;;;;;5008176;28;20030;-52
2023/04/05 08:51:38;;;;;;;12.23;5.78;;;;;;;;;;5008991;28;20330;-52
2023/04/05 08:54:03;;;;;;;9.32;6.03;;;;;;;;;;5008673;28;20156;-54
2023/04/05 08:56:30;;;;;;;9.82;5.75;;;;;;;;;;5010074;28;20030;-52
2023/04/05 08:59:05;;;;;;;12.55;6.00;;;;;;;;;;5007807;28;20521;-52
2023/04/05 09:01:31;;;;;;;9.55;5.53;;;;;;;;;;5019603;28;20026;-56
2023/04/05 09:03:59;;;;;;;9.48;6.00;;;;;;;;;;5026248;28;20021;-53
2023/04/05 09:06:27;;;;;;;9.88;5.97;;;;;;;;;;5027493;28;20116;-53
2023/04/05 09:08:52;;;;;;;10.20;5.72;;;;;;;;;;5026765;28;20025;-54
2023/04/05 09:11:18;;;;;;;11.18;5.57;;;;;;;;;;5028164;28;20421;-51
2023/04/05 09:13:44;;;;;;;8.52;5.10;;;;;;;;;;5027316;28;20033;-48
2023/04/05 09:16:09;;;;;;;9.48;5.70;;;;;;;;;;5028313;28;20668;-51
2023/04/05 09:18:35;;;;;;;11.68;5.88;;;;;;;;;;5026278;28;20414;-50
2023/04/05 09:21:04;;;;;;;8.15;5.20;;;;;;;;;;5026942;28;20037;-57
2023/04/05 09:23:30;;;;;;;11.60;6.30;;;;;;;;;;5027043;28;20029;-53
2023/04/05 09:25:55;;;;;;;10.60;5.88;;;;;;;;;;5023104;28;20582;-58
2023/04/05 09:28:20;;;;;;;10.32;6.05;;;;;;;;;;5024102;28;20120;-54
2023/04/05 09:30:46;;;;;;;9.77;5.70;;;;;;;;;;5024310;28;20466;-58
2023/04/05 09:33:14;;;;;;;10.82;5.35;;;;;;;;;;5023787;28;20040;-53
2023/04/05 09:35:39;;;;;;;8.82;5.50;;;;;;;;;;5024357;28;20468;-59
2023/04/05 09:38:05;;;;;;;7.97;5.22;;;;;;;;;;5024420;28;20049;-52
2023/04/05 09:40:45;;;;;;;8.63;5.40;;;;;;;;;;5020356;28;20037;-53
2023/04/05 09:43:33;;;;;;;8.38;5.43;;;;;;;;;;5005753;28;20611;-55
2023/04/05 09:45:59;;;;;;;9.80;5.00;;;;;;;;;;5020766;28;20030;-58
2023/04/05 09:48:43;;;;;;;8.93;5.10;;;;;;;;;;5023117;28;20037;-55
2023/04/05 09:51:08;;;;;;;10.50;4.97;;;;;;;;;;5023963;28;20045;-51
2023/04/05 09:53:33;;;;;;;10.52;5.75;;;;;;;;;;5022082;28;20030;-57
2023/04/05 09:56:07;;;;;;;8.25;5.10;;;;;;;;;;5023646;28;20584;-54
2023/04/05 09:58:33;;;;;;;10.05;5.03;;;;;;;;;;5021108;28;20025;-57
2023/04/05 10:00:58;;;;;;;7.28;5.20;;;;;;;;;;5004729;28;20111;-53
2023/04/05 10:03:24;;;;;;;9.57;5.30;;;;;;;;;;5023966;28;20039;-53
2023/04/05 10:05:56;;;;;;;10.18;5.10;;;;;;;;;;5024635;28;20431;-56
2023/04/05 10:08:22;;;;;;;9.30;4.72;;;;;;;;;;5021184;28;20048;-61
2023/04/05 10:10:48;;;;;;;11.93;4.97;;;;;;;;;;5021918;28;20037;-57
2023/04/05 10:13:15;;;;;;;9.80;5.07;;;;;;;;;;5023350;28;20418;-55
2023/04/05 10:15:44;;;;;;;6.95;4.75;;;;;;;;;;5020845;28;20040;-52
2023/04/05 10:18:12;;;;;;;9.98;4.88;;;;;;;;;;5022094;28;20037;-53
2023/04/05 10:20:42;;;;;;;8.43;4.82;;;;;;;;;;5005980;28;20531;-55
2023/04/05 10:23:10;;;;;;;8.82;4.45;;;;;;;;;;5021889;28;20042;-54
2023/04/05 10:25:45;;;;;;;8.68;5.00;;;;;;;;;;5021713;28;20115;-57
2023/04/05 10:28:13;;;;;;;7.85;4.35;;;;;;;;;;5022893;28;20029;-55
2023/04/05 10:30:45;;;;;;;7.32;4.43;;;;;;;;;;5022774;28;20405;-53
2023/04/05 10:33:11;;;;;;;8.15;4.80;;;;;;;;;;5023630;28;20037;-56
2023/04/05 10:35:49;;;;;;;6.45;4.78;;;;;;;;;;5023666;28;20041;-54
2023/04/05 10:38:24;;;;;;;7.22;4.85;;;;;;;;;;5023404;28;20037;-54
2023/04/05 10:40:53;;;;;;;9.70;4.80;;;;;;;;;;5007285;28;20381;-53
2023/04/05 10:43:19;;;;;;;9.77;4.90;;;;;;;;;;5022167;28;20112;-52
2023/04/05 10:45:46;;;;;;;8.43;4.72;;;;;;;;;;5021639;28;20038;-55
2023/04/05 10:48:30;;;;;;;12.68;5.05;;;;;;;;;;5023902;28;20030;-52
2023/04/05 10:50:57;;;;;;;6.10;4.22;;;;;;;;;;5023694;28;20038;-54
2023/04/05 10:53:24;;;;;;;6.75;4.43;;;;;;;;;;5022700;28;20858;-54
2023/04/05 10:55:49;;;;;;;7.10;4.35;;;;;;;;;;5023265;28;20105;-49
2023/04/05 10:58:15;;;;;;;7.60;4.20;;;;;;;;;;5021651;28;20120;-56
2023/04/05 11:00:41;;;;;;;7.93;4.60;;;;;;;;;;5021103;28;20115;-56
2023/04/05 11:03:06;;;;;;;7.53;4.57;;;;;;;;;;5022562;28;20116;-52
2023/04/05 11:05:33;;;;;;;10.75;4.85;;;;;;;;;;5005238;28;20045;-52
2023/04/05 11:07:59;;;;;;;7.40;4.40;;;;;;;;;;4987977;28;20095;-52
2023/04/05 11:10:25;;;;;;;7.85;4.70;;;;;;;;;;5021780;28;20286;-52
2023/04/05 11:12:51;;;;;;;8.35;4.72;;;;;;;;;;5023642;28;20044;-53
2023/04/05 11:15:34;;;;;;;7.13;4.72;;;;;;;;;;5023818;28;20030;-55
2023/04/05 11:18:29;;;;;;;6.95;4.30;;;;;;;;;;5021484;28;20044;-57
2023/04/05 11:21:05;;;;;;;9.50;4.47;;;;;;;;;;5004868;28;20061;-55
2023/04/05 11:23:30;;;;;;;8.15;5.03;;;;;;;;;;5021056;28;20810;-56
2023/04/05 11:26:02;;;;;;;7.18;4.60;;;;;;;;;;5022250;28;20036;-50
2023/04/05 11:28:27;;;;;;;6.60;4.30;;;;;;;;;;5021401;28;20030;-54
2023/04/05 11:30:57;;;;;;;7.25;4.63;;;;;;;;;;5021648;28;20427;-49
2023/04/05 11:33:35;;;;;;;9.00;4.10;;;;;;;;;;5019186;28;20065;-53
2023/04/05 11:36:01;;;;;;;5.97;3.90;;;;;;;;;;5021164;28;20124;-54
2023/04/05 11:38:27;;;;;;;8.23;4.40;;;;;;;;;;5022662;28;20148;-56
2023/04/05 11:41:03;;;;;;;7.60;4.13;;;;;;;;;;5023162;28;20357;-55
2023/04/05 11:43:29;;;;;;;6.07;4.30;;;;;;;;;;5023128;28;20033;-54
2023/04/05 11:45:55;;;;;;;7.55;4.38;;;;;;;;;;5024545;28;20033;-53
2023/04/05 11:48:21;;;;;;;6.88;4.22;;;;;;;;;;5024098;28;20034;-57
2023/04/05 11:50:46;;;;;;;6.15;3.83;;;;;;;;;;5025052;28;20044;-54
2023/04/05 11:53:13;;;;;;;9.32;4.30;;;;;;;;;;5024042;28;20409;-59
2023/04/05 11:55:39;;;;;;;7.40;4.22;;;;;;;;;;5024199;28;20038;-61
2023/04/05 11:58:35;;;;;;;8.63;4.20;;;;;;;;;;5006675;28;20065;-55
2023/04/05 12:01:01;;;;;;;5.85;4.03;;;;;;;;;;4992965;28;20044;-52
2023/04/05 12:03:29;;;;;;;6.70;3.80;;;;;;;;;;5006634;28;20088;-59
2023/04/05 12:05:55;;;;;;;6.55;4.10;;;;;;;;;;5024349;28;20485;-55
2023/04/05 12:08:21;;;;;;;8.90;4.60;;;;;;;;;;5023681;28;20124;-60
2023/04/05 12:10:53;;;;;;;6.72;4.30;;;;;;;;;;5024763;28;20334;-57
2023/04/05 12:13:45;;;;;;;8.23;5.45;;;;;;;;;;5025633;28;20030;-53
2023/04/05 12:16:10;;;;;;;9.75;4.35;;;;;;;;;;5020356;28;20088;-55
2023/04/05 12:18:36;;;;;;;5.10;3.33;;;;;;;;;;5023458;28;20484;-55
2023/04/05 12:21:08;;;;;;;5.72;3.92;;;;;;;;;;5023706;28;20044;-59
2023/04/05 12:23:35;;;;;;;6.43;3.60;;;;;;;;;;5022853;28;20660;-54
2023/04/05 12:26:02;;;;;;;5.65;3.70;;;;;;;;;;5020755;28;20034;-59
2023/04/05 12:28:48;;;;;;;6.80;3.92;;;;;;;;;;5024960;28;20469;-56
2023/04/05 12:31:13;;;;;;;5.63;3.50;;;;;;;;;;4995960;28;20044;-51
2023/04/05 12:33:39;;;;;;;6.97;4.13;;;;;;;;;;5022348;28;20030;-57
2023/04/05 12:36:06;;;;;;;5.50;3.83;;;;;;;;;;5023552;28;20030;-53
2023/04/05 12:38:31;;;;;;;;;;;;;;;;;;5025339;28;20043;-56
2023/04/05 12:41:01;;;;;;;7.07;3.90;;;;;;;;;;5022281;28;19909;-57
2023/04/05 12:43:37;;;;;;;6.85;3.78;;;;;;;;;;5024160;28;20076;-56
2023/04/05 12:46:05;;;;;;;6.27;3.80;;;;;;;;;;4997785;28;20037;-55
2023/04/05 12:48:30;;;;;;;7.43;3.85;;;;;;;;;;5024205;28;20520;-52
2023/04/05 12:50:55;;;;;;;6.17;4.17;;;;;;;;;;5025189;28;20121;-52
2023/04/05 12:53:22;;;;;;;7.40;3.92;;;;;;;;;;5025168;28;20029;-59
2023/04/05 12:55:49;;;;;;;6.63;3.53;;;;;;;;;;5023223;28;20036;-54
2023/04/05 12:58:16;;;;;;;6.32;3.90;;;;;;;;;;5023583;28;20120;-57
2023/04/05 13:00:41;;;;;;;;;;;;;;;;;;5025564;28;20152;-51
2023/04/05 13:03:13;;;;;;;8.63;3.60;;;;;;;;;;5027914;28;20639;-57
2023/04/05 13:05:39;;;;;;;5.63;3.83;;;;;;;;;;5026206;28;20021;-57
2023/04/05 13:08:04;;;;;;;5.45;3.85;;;;;;;;;;5025135;28;20026;-53
2023/04/05 13:10:30;;;;;;;6.53;3.60;;;;;;;;;;5026425;28;20033;-56
2023/04/05 13:12:55;;;;;;;6.27;3.60;;;;;;;;;;5027657;28;20109;-56
2023/04/05 13:15:20;;;;;;;5.20;3.77;;;;;;;;;;5026225;28;20026;-52
2023/04/05 13:17:48;;;;;;;7.00;3.80;;;;;;;;;;5014286;28;20030;-58
2023/04/05 13:20:14;;;;;;;5.63;3.88;;;;;;;;;;5026025;28;20128;-56
2023/04/05 13:22:39;;;;;;;6.90;3.90;;;;;;;;;;5026817;28;20452;-58
2023/04/05 13:25:05;;;;;;;6.27;3.63;;;;;;;;;;5025715;28;20029;-55
2023/04/05 13:27:30;;;;;;;9.63;3.97;;;;;;;;;;5027919;28;20091;-57
2023/04/05 13:29:56;;;;;;;6.30;3.27;;;;;;;;;;5000881;28;20045;-49
2023/04/05 13:32:21;;;;;;;7.23;4.10;;;;;;;;;;5012590;28;20041;-56
2023/04/05 13:34:47;;;;;;;5.70;3.90;;;;;;;;;;5025901;28;20055;-52
2023/04/05 13:37:13;;;;;;;7.53;3.90;;;;;;;;;;5027692;28;20032;-53
2023/04/05 13:39:38;;;;;;;5.23;3.40;;;;;;;;;;5028584;28;20039;-56
2023/04/05 13:42:04;;;;;;;5.53;3.30;;;;;;;;;;5027014;28;20017;-59
2023/04/05 13:44:29;;;;;;;6.13;3.43;;;;;;;;;;5026456;28;20030;-56
2023/04/05 13:46:54;;;;;;;5.93;3.90;;;;;;;;;;5027491;28;20048;-56
2023/04/05 13:49:20;;;;;;;9.00;4.60;;;;;;;;;;5026903;28;20042;-57
2023/04/05 13:51:45;;;;;;;6.43;3.70;;;;;;;;;;5026734;28;20041;-52
2023/04/05 13:54:14;;;;;;;5.30;3.80;;;;;;;;;;5025222;28;20351;-54
2023/04/05 13:56:40;;;;;;;5.45;3.80;;;;;;;;;;5008460;28;20025;-56
2023/04/05 13:59:05;;;;;;;4.57;3.20;;;;;;;;;;5026460;28;20025;-55
2023/04/05 14:01:32;;;;;;;7.10;3.55;;;;;;;;;;5025338;28;20671;-57
2023/04/05 14:03:58;;;;;;;9.60;3.50;;;;;;;;;;5020126;28;20421;-55
2023/04/05 14:06:23;;;;;;;5.37;3.60;;;;;;;;;;5024816;28;20555;-55
2023/04/05 14:08:53;;;;;;;8.93;4.13;;;;;;;;;;5023429;28;20884;-53
2023/04/05 14:11:19;;;;;;;6.63;3.50;;;;;;;;;;5006052;28;20065;-55
2023/04/05 14:13:44;;;;;;;6.37;3.70;;;;;;;;;;5026984;28;20164;-54
2023/04/05 14:16:10;;;;;;;5.90;3.57;;;;;;;;;;5025649;28;20116;-52
2023/04/05 14:18:35;;;;;;;6.43;4.00;;;;;;;;;;5025421;28;20078;-61
2023/04/05 14:21:00;;;;;;;6.97;3.97;;;;;;;;;;5023013;28;20025;-55
2023/04/05 14:23:26;;;;;;;6.18;4.00;;;;;;;;;;5008284;28;20041;-54
2023/04/05 14:25:51;;;;;;;6.97;4.03;;;;;;;;;;5008431;28;20026;-52
2023/04/05 14:28:17;;;;;;;9.00;3.87;;;;;;;;;;5026735;28;20048;-54
2023/04/05 14:30:42;;;;;;;6.00;3.60;;;;;;;;;;5024346;28;20355;-55
2023/04/05 14:33:07;;;;;;;7.10;3.73;;;;;;;;;;5025567;28;20397;-54
2023/04/05 14:35:33;;;;;;;5.60;3.50;;;;;;;;;;5007608;28;20065;-51
2023/04/05 14:37:58;;;;;;;6.03;3.40;;;;;;;;;;5023040;28;20076;-53
2023/04/05 14:40:23;;;;;;;6.67;3.87;;;;;;;;;;5022918;28;20037;-49
2023/04/05 14:42:49;;;;;;;7.47;3.30;;;;;;;;;;5024415;28;20116;-57
2023/04/05 14:45:15;;;;;;;7.17;3.97;;;;;;;;;;5005491;28;20026;-51